createdAt,value
2022-07-29T00:00:45.762Z,3.40
2022-07-29T00:03:14.918Z,3.30
2022-07-29T00:08:12.682Z,2.90
2022-07-29T00:13:08.778Z,4.40
2022-07-29T00:15:36.989Z,2.80
2022-07-29T00:18:05.137Z,2.90
2022-07-29T00:20:32.979Z,3.40
2022-07-29T00:23:01.431Z,3.10
2022-07-29T00:25:29.208Z,3.30
2022-07-29T00:27:57.025Z,3.40
2022-07-29T00:30:24.864Z,3.50
2022-07-29T00:32:52.644Z,3.30
2022-07-29T00:35:39.234Z,3.20
2022-07-29T00:38:08.016Z,3.20
2022-07-29T00:40:35.821Z,3.00
2022-07-29T00:43:03.926Z,3.20
2022-07-29T00:45:31.989Z,2.90
2022-07-29T00:48:00.294Z,3.30
2022-07-29T00:50:28.474Z,2.90
2022-07-29T00:52:56.300Z,2.90
2022-07-29T00:55:24.273Z,3.10
2022-07-29T00:57:53.090Z,3.10
2022-07-29T01:00:24.604Z,3.40
2022-07-29T01:02:52.701Z,2.80
2022-07-29T01:05:22.477Z,3.00
2022-07-29T01:07:54.697Z,3.20
2022-07-29T01:10:23.612Z,3.10
2022-07-29T01:12:52.967Z,3.10
2022-07-29T01:15:21.318Z,3.30
2022-07-29T01:17:58.731Z,3.20
2022-07-29T01:21:01.033Z,3.30
2022-07-29T01:23:46.953Z,3.20
2022-07-29T01:26:33.444Z,3.30
2022-07-29T01:29:23.617Z,3.10
2022-07-29T01:32:01.245Z,2.90
2022-07-29T01:34:37.129Z,3.30
2022-07-29T01:37:31.147Z,3.20
2022-07-29T01:39:59.994Z,3.20
2022-07-29T01:42:46.566Z,3.40
2022-07-29T01:46:03.691Z,3.60
2022-07-29T01:48:51.552Z,3.00
2022-07-29T01:51:29.489Z,3.50
2022-07-29T01:54:06.437Z,3.10
2022-07-29T01:56:36.486Z,3.50
2022-07-29T01:59:06.119Z,3.50
2022-07-29T02:04:07.475Z,3.00
2022-07-29T02:06:36.386Z,3.20
2022-07-29T02:09:05.626Z,3.40
2022-07-29T02:11:37.202Z,3.30
2022-07-29T02:14:05.536Z,3.60
2022-07-29T02:16:34.763Z,3.00
2022-07-29T02:19:05.125Z,3.30
2022-07-29T02:21:33.221Z,3.50
2022-07-29T02:24:02.600Z,3.50
2022-07-29T02:26:32.535Z,3.20
2022-07-29T02:29:01.343Z,3.20
2022-07-29T02:31:33.978Z,3.20
2022-07-29T02:34:08.544Z,3.20
2022-07-29T02:36:37.610Z,3.20
2022-07-29T02:39:06.370Z,3.40
2022-07-29T02:41:48.887Z,3.60
2022-07-29T02:44:21.903Z,3.30
2022-07-29T02:47:22.196Z,3.20
2022-07-29T02:49:56.609Z,3.40
2022-07-29T02:52:41.032Z,3.80
2022-07-29T02:55:32.029Z,3.80
2022-07-29T02:58:15.632Z,3.70
2022-07-29T03:00:44.022Z,3.30
2022-07-29T03:03:17.414Z,3.40
2022-07-29T03:05:45.674Z,3.80
2022-07-29T03:08:16.115Z,4.00
2022-07-29T03:10:46.618Z,3.80
2022-07-29T03:13:15.696Z,4.10
2022-07-29T03:15:44.677Z,3.90
2022-07-29T03:18:13.131Z,3.70
2022-07-29T03:20:41.537Z,3.20
2022-07-29T03:23:09.781Z,3.30
2022-07-29T03:25:37.667Z,3.00
2022-07-29T03:28:05.777Z,3.40
2022-07-29T03:30:33.795Z,3.30
2022-07-29T03:33:02.034Z,3.30
2022-07-29T03:35:32.581Z,3.20
2022-07-29T03:38:00.605Z,3.30
2022-07-29T03:40:36.667Z,3.50
2022-07-29T03:43:05.184Z,3.50
2022-07-29T03:45:33.401Z,3.00
2022-07-29T03:48:05.327Z,3.40
2022-07-29T03:50:34.978Z,3.60
2022-07-29T03:53:03.867Z,3.20
2022-07-29T03:55:37.616Z,3.30
2022-07-29T03:58:06.476Z,3.10
2022-07-29T04:00:34.903Z,3.00
2022-07-29T04:03:05.167Z,2.90
2022-07-29T04:05:39.240Z,3.20
2022-07-29T04:08:07.072Z,3.00
2022-07-29T04:10:35.176Z,3.20
2022-07-29T04:13:03.856Z,3.00
2022-07-29T04:15:32.035Z,2.90
2022-07-29T04:18:00.528Z,3.10
2022-07-29T04:20:28.531Z,2.90
2022-07-29T04:22:56.537Z,2.80
2022-07-29T04:25:24.464Z,2.90
2022-07-29T04:28:01.182Z,3.00
2022-07-29T04:30:30.677Z,3.20
2022-07-29T04:32:59.454Z,2.90
2022-07-29T04:35:28.236Z,3.20
2022-07-29T04:40:25.337Z,2.90
2022-07-29T04:42:53.420Z,2.60
2022-07-29T04:45:22.875Z,2.90
2022-07-29T04:47:51.151Z,2.50
2022-07-29T04:50:19.090Z,2.80
2022-07-29T04:52:46.837Z,3.00
2022-07-29T04:55:14.719Z,3.20
2022-07-29T04:57:42.549Z,2.70
2022-07-29T05:00:10.975Z,3.30
2022-07-29T05:02:39.360Z,2.90
2022-07-29T05:05:07.797Z,3.00
2022-07-29T05:07:35.775Z,2.30
2022-07-29T05:10:04.346Z,2.20
2022-07-29T05:12:32.246Z,2.60
2022-07-29T05:15:00.049Z,2.10
2022-07-29T05:17:27.890Z,1.90
2022-07-29T05:19:55.698Z,2.00
2022-07-29T05:22:24.696Z,2.00
2022-07-29T05:24:53.433Z,2.00
2022-07-29T05:27:21.280Z,1.90
2022-07-29T05:29:49.248Z,1.90
2022-07-29T05:32:17.034Z,2.10
2022-07-29T05:34:50.297Z,1.90
2022-07-29T05:37:20.717Z,2.20
2022-07-29T05:39:56.148Z,2.10
2022-07-29T05:42:26.333Z,2.00
2022-07-29T05:44:54.688Z,1.90
2022-07-29T05:47:23.089Z,1.70
2022-07-29T05:49:51.704Z,2.20
2022-07-29T05:52:19.696Z,2.40
2022-07-29T05:54:47.757Z,2.20
2022-07-29T05:57:23.395Z,1.90
2022-07-29T05:59:52.042Z,2.20
2022-07-29T06:02:20.116Z,1.70
2022-07-29T06:04:48.128Z,1.60
2022-07-29T06:07:17.239Z,1.90
2022-07-29T06:09:45.197Z,1.70
2022-07-29T06:12:13.114Z,1.90
2022-07-29T06:14:41.134Z,1.50
2022-07-29T06:17:09.139Z,1.80
2022-07-29T06:19:37.491Z,1.50
2022-07-29T06:22:05.881Z,1.70
2022-07-29T06:24:33.693Z,1.50
2022-07-29T06:27:01.632Z,1.50
2022-07-29T06:29:29.575Z,1.90
2022-07-29T06:31:57.715Z,1.60
2022-07-29T06:34:25.484Z,1.60
2022-07-29T06:36:54.274Z,1.60
2022-07-29T06:39:22.405Z,1.80
2022-07-29T06:41:51.642Z,1.40
2022-07-29T06:44:20.372Z,1.70
2022-07-29T06:46:51.260Z,1.90
2022-07-29T06:49:19.405Z,1.50
2022-07-29T06:51:47.752Z,1.40
2022-07-29T06:54:16.730Z,1.40
2022-07-29T06:56:45.100Z,1.50
2022-07-29T06:59:13.505Z,1.60
2022-07-29T07:01:43.411Z,1.50
2022-07-29T07:04:12.356Z,1.20
2022-07-29T07:06:40.540Z,1.60
2022-07-29T07:09:08.643Z,1.40
2022-07-29T07:11:36.748Z,1.30
2022-07-29T07:14:05.066Z,1.50
2022-07-29T07:16:33.416Z,1.20
2022-07-29T07:19:02.005Z,1.40
2022-07-29T07:21:31.590Z,1.30
2022-07-29T07:24:00.418Z,1.20
2022-07-29T07:26:28.741Z,1.50
2022-07-29T07:28:57.073Z,1.30
2022-07-29T07:31:25.159Z,1.20
2022-07-29T07:33:54.733Z,1.40
2022-07-29T07:36:23.605Z,1.30
2022-07-29T07:38:51.834Z,1.30
2022-07-29T07:41:19.863Z,1.00
2022-07-29T07:43:47.940Z,1.20
2022-07-29T07:46:16.846Z,1.40
2022-07-29T07:48:45.746Z,1.30
2022-07-29T07:51:13.796Z,1.30
2022-07-29T07:53:41.791Z,1.10
2022-07-29T07:56:11.780Z,1.10
2022-07-29T07:58:40.684Z,1.30
2022-07-29T08:01:09.773Z,1.10
2022-07-29T08:06:06.157Z,1.30
2022-07-29T08:08:34.166Z,1.30
2022-07-29T08:11:09.179Z,1.40
2022-07-29T08:13:38.914Z,1.10
2022-07-29T08:16:16.106Z,1.40
2022-07-29T08:18:46.355Z,1.40
2022-07-29T08:21:16.597Z,1.00
2022-07-29T08:23:58.609Z,1.20
2022-07-29T08:26:27.830Z,1.10
2022-07-29T08:28:55.815Z,1.20
2022-07-29T08:31:23.930Z,1.30
2022-07-29T08:33:52.093Z,1.20
2022-07-29T08:36:22.052Z,1.20
2022-07-29T08:38:50.762Z,1.40
2022-07-29T08:41:21.705Z,1.50
2022-07-29T08:43:51.122Z,1.30
2022-07-29T08:46:20.253Z,1.40
2022-07-29T08:48:48.980Z,1.30
2022-07-29T08:51:19.558Z,1.20
2022-07-29T08:53:49.805Z,1.30
2022-07-29T08:56:19.847Z,1.10
2022-07-29T08:58:52.069Z,1.50
2022-07-29T09:01:35.894Z,1.30
2022-07-29T09:04:12.812Z,1.20
2022-07-29T09:06:44.944Z,1.20
2022-07-29T09:09:14.711Z,1.20
2022-07-29T09:11:43.318Z,1.20
2022-07-29T09:14:13.558Z,1.70
2022-07-29T09:16:56.108Z,1.20
2022-07-29T09:19:25.186Z,1.20
2022-07-29T09:21:59.837Z,1.10
2022-07-29T09:24:40.868Z,1.30
2022-07-29T09:27:10.769Z,1.50
2022-07-29T09:29:39.333Z,1.00
2022-07-29T09:32:10.806Z,1.20
2022-07-29T09:34:39.175Z,1.00
2022-07-29T09:37:07.213Z,1.30
2022-07-29T09:39:46.734Z,1.30
2022-07-29T09:42:28.960Z,1.30
2022-07-29T09:44:57.086Z,1.10
2022-07-29T09:47:42.461Z,1.30
2022-07-29T09:50:10.324Z,1.20
2022-07-29T09:52:52.971Z,1.20
2022-07-29T09:55:20.986Z,1.10
2022-07-29T09:57:48.781Z,1.30
2022-07-29T10:00:19.793Z,1.10
2022-07-29T10:02:48.481Z,0.90
2022-07-29T10:05:24.940Z,1.20
2022-07-29T10:07:57.754Z,1.10
2022-07-29T10:10:29.496Z,1.30
2022-07-29T10:13:06.410Z,1.30
2022-07-29T10:15:40.089Z,1.10
2022-07-29T10:18:09.288Z,1.10
2022-07-29T10:20:38.162Z,1.10
2022-07-29T10:23:06.475Z,1.10
2022-07-29T10:25:34.525Z,1.10
2022-07-29T10:28:02.438Z,1.40
2022-07-29T10:30:30.254Z,1.70
2022-07-29T10:33:07.799Z,1.30
2022-07-29T10:35:54.487Z,1.60
2022-07-29T10:41:47.642Z,1.70
2022-07-29T10:44:22.998Z,1.50
2022-07-29T10:46:52.779Z,1.70
2022-07-29T10:49:30.393Z,1.50
2022-07-29T10:52:06.683Z,1.60
2022-07-29T10:54:35.007Z,1.40
2022-07-29T10:57:21.860Z,1.30
2022-07-29T11:00:09.973Z,1.30
2022-07-29T11:02:44.583Z,1.50
2022-07-29T11:05:19.876Z,1.20
2022-07-29T11:08:20.105Z,1.00
2022-07-29T11:10:49.956Z,1.20
2022-07-29T11:13:55.816Z,1.00
2022-07-29T11:16:25.626Z,1.10
2022-07-29T11:19:13.139Z,1.30
2022-07-29T11:22:05.453Z,1.30
2022-07-29T11:24:33.351Z,1.60
2022-07-29T11:27:21.497Z,1.00
2022-07-29T11:29:52.231Z,1.30
2022-07-29T11:32:24.161Z,1.20
2022-07-29T11:35:16.692Z,1.10
2022-07-29T11:37:52.184Z,1.10
2022-07-29T11:40:24.225Z,1.60
2022-07-29T11:42:53.407Z,1.10
2022-07-29T11:45:44.710Z,1.10
2022-07-29T11:48:28.046Z,1.20
2022-07-29T11:51:00.889Z,1.30
2022-07-29T11:53:32.567Z,1.00
2022-07-29T11:56:03.845Z,1.10
2022-07-29T11:58:33.044Z,1.30
2022-07-29T12:01:04.723Z,1.00
2022-07-29T12:04:04.264Z,1.00
2022-07-29T12:06:37.940Z,1.10
2022-07-29T12:09:14.453Z,1.20
2022-07-29T12:11:47.318Z,1.10
2022-07-29T12:14:33.440Z,1.10
2022-07-29T12:17:02.981Z,1.00
2022-07-29T12:19:44.443Z,1.30
2022-07-29T12:22:12.897Z,1.30
2022-07-29T12:24:45.475Z,0.90
2022-07-29T12:27:18.539Z,1.10
2022-07-29T12:29:57.437Z,0.90
2022-07-29T12:32:33.882Z,0.80
2022-07-29T12:35:10.372Z,1.00
2022-07-29T12:37:41.137Z,1.10
2022-07-29T12:40:13.629Z,0.90
2022-07-29T12:42:41.889Z,1.00
2022-07-29T12:45:10.023Z,1.00
2022-07-29T12:47:53.176Z,0.90
2022-07-29T12:50:25.926Z,0.90
2022-07-29T12:52:54.757Z,0.80
2022-07-29T12:55:52.630Z,1.10
2022-07-29T12:58:28.529Z,0.90
2022-07-29T13:01:05.386Z,0.90
2022-07-29T13:03:58.056Z,1.10
2022-07-29T13:06:38.947Z,0.90
2022-07-29T13:09:10.500Z,0.90
2022-07-29T13:11:45.294Z,0.80
2022-07-29T13:14:35.488Z,1.20
2022-07-29T13:17:12.425Z,1.00
2022-07-29T13:19:49.199Z,0.90
2022-07-29T13:22:20.202Z,1.10
2022-07-29T13:24:53.634Z,1.00
2022-07-29T13:27:26.989Z,0.90
2022-07-29T13:29:57.647Z,1.00
2022-07-29T13:32:28.574Z,0.80
2022-07-29T13:34:58.174Z,1.00
2022-07-29T13:37:28.253Z,0.90
2022-07-29T13:39:57.904Z,0.80
2022-07-29T13:42:26.640Z,1.10
2022-07-29T13:47:23.111Z,0.80
2022-07-29T13:50:02.249Z,0.90
2022-07-29T13:52:30.519Z,1.10
2022-07-29T13:54:58.613Z,0.70
2022-07-29T13:57:27.405Z,0.90
2022-07-29T13:59:55.200Z,0.90
2022-07-29T14:02:25.627Z,0.90
2022-07-29T14:04:55.250Z,1.00
2022-07-29T14:07:23.652Z,0.90
2022-07-29T14:09:51.888Z,0.90
2022-07-29T14:12:20.305Z,1.10
2022-07-29T14:14:48.102Z,0.90
2022-07-29T14:17:16.548Z,1.00
2022-07-29T14:19:44.363Z,0.80
2022-07-29T14:22:12.453Z,1.00
2022-07-29T14:24:40.701Z,1.00
2022-07-29T14:27:09.079Z,0.80
2022-07-29T14:29:38.761Z,0.80
2022-07-29T14:32:08.272Z,1.00
2022-07-29T14:34:37.620Z,1.10
2022-07-29T14:37:07.074Z,0.80
2022-07-29T14:39:42.322Z,0.80
2022-07-29T14:42:12.880Z,0.70
2022-07-29T14:44:42.409Z,0.90
2022-07-29T14:47:10.691Z,0.90
2022-07-29T14:49:38.497Z,1.10
2022-07-29T14:52:06.634Z,1.30
2022-07-29T14:54:35.007Z,1.20
2022-07-29T14:57:02.794Z,0.90
2022-07-29T14:59:31.277Z,0.90
2022-07-29T15:01:59.584Z,1.00
2022-07-29T15:04:27.667Z,1.00
2022-07-29T15:06:55.535Z,0.90
2022-07-29T15:09:24.965Z,0.80
2022-07-29T15:11:53.004Z,1.00
2022-07-29T15:14:20.822Z,0.90
2022-07-29T15:16:49.119Z,0.90
2022-07-29T15:19:17.067Z,0.90
2022-07-29T15:21:48.714Z,1.00
2022-07-29T15:24:18.138Z,1.00
2022-07-29T15:26:46.949Z,0.80
2022-07-29T15:31:44.481Z,0.90
2022-07-29T15:34:12.456Z,1.10
2022-07-29T15:36:56.057Z,1.00
2022-07-29T15:39:24.948Z,0.90
2022-07-29T15:41:52.803Z,0.90
2022-07-29T15:44:21.472Z,1.10
2022-07-29T15:47:05.860Z,0.90
2022-07-29T15:49:48.637Z,0.90
2022-07-29T15:52:25.073Z,1.70
2022-07-29T15:54:56.008Z,1.00
2022-07-29T15:57:24.825Z,1.20
2022-07-29T15:59:53.031Z,0.80
2022-07-29T16:02:21.017Z,0.90
2022-07-29T16:04:48.908Z,1.10
2022-07-29T16:07:17.088Z,1.50
2022-07-29T16:09:49.236Z,1.00
2022-07-29T16:12:20.615Z,1.40
2022-07-29T16:14:49.659Z,1.10
2022-07-29T16:17:18.336Z,1.10
2022-07-29T16:19:50.311Z,1.50
2022-07-29T16:22:18.246Z,1.00
2022-07-29T16:24:46.119Z,1.20
2022-07-29T16:27:14.629Z,1.70
2022-07-29T16:29:42.586Z,1.10
2022-07-29T16:32:10.711Z,1.10
2022-07-29T16:34:38.617Z,0.90
2022-07-29T16:37:06.613Z,1.20
2022-07-29T16:39:34.510Z,1.20
2022-07-29T16:42:05.049Z,1.00
2022-07-29T16:44:34.861Z,1.00
2022-07-29T16:47:04.276Z,1.20
2022-07-29T16:49:32.586Z,1.20
2022-07-29T16:52:00.748Z,1.10
2022-07-29T16:54:28.986Z,1.10
2022-07-29T16:56:57.311Z,1.50
2022-07-29T16:59:25.386Z,1.20
2022-07-29T17:01:53.233Z,1.30
2022-07-29T17:04:22.872Z,1.10
2022-07-29T17:06:50.957Z,1.10
2022-07-29T17:09:18.888Z,1.20
2022-07-29T17:11:54.901Z,1.20
2022-07-29T17:14:25.433Z,1.20
2022-07-29T17:17:02.590Z,1.10
2022-07-29T17:19:35.167Z,1.10
2022-07-29T17:22:12.630Z,1.40
2022-07-29T17:24:44.069Z,1.10
2022-07-29T17:27:11.966Z,1.50
2022-07-29T17:29:40.004Z,1.10
2022-07-29T17:32:09.116Z,1.10
2022-07-29T17:34:41.083Z,1.20
2022-07-29T17:37:11.145Z,1.40
2022-07-29T17:39:41.232Z,1.30
2022-07-29T17:42:11.073Z,1.40
2022-07-29T17:44:39.826Z,1.50
2022-07-29T17:47:15.659Z,1.20
2022-07-29T17:49:45.326Z,1.50
2022-07-29T17:52:13.291Z,1.60
2022-07-29T17:54:41.223Z,1.30
2022-07-29T17:57:09.202Z,1.50
2022-07-29T17:59:38.141Z,1.70
2022-07-29T18:04:34.067Z,1.30
2022-07-29T18:07:02.138Z,1.40
2022-07-29T18:09:30.283Z,1.50
2022-07-29T18:11:58.131Z,1.50
2022-07-29T18:14:26.098Z,1.80
2022-07-29T18:16:53.865Z,1.40
2022-07-29T18:19:22.001Z,1.30
2022-07-29T18:21:54.178Z,1.60
2022-07-29T18:24:25.912Z,1.80
2022-07-29T18:26:54.121Z,1.60
2022-07-29T18:29:21.978Z,1.60
2022-07-29T18:31:50.319Z,1.70
2022-07-29T18:34:19.905Z,1.40
2022-07-29T18:36:47.866Z,1.50
2022-07-29T18:39:20.873Z,1.50
2022-07-29T18:41:51.408Z,1.60
2022-07-29T18:44:22.114Z,1.50
2022-07-29T18:46:52.029Z,1.80
2022-07-29T18:49:20.117Z,1.30
2022-07-29T18:51:49.342Z,1.80
2022-07-29T18:54:18.053Z,1.60
2022-07-29T18:56:46.733Z,1.40
2022-07-29T18:59:20.198Z,1.40
2022-07-29T19:01:48.629Z,1.60
2022-07-29T19:04:17.334Z,1.50
2022-07-29T19:06:46.835Z,1.30
2022-07-29T19:09:14.752Z,1.50
2022-07-29T19:11:42.595Z,1.70
2022-07-29T19:14:10.967Z,1.40
2022-07-29T19:16:38.836Z,1.30
2022-07-29T19:19:08.516Z,1.50
2022-07-29T19:21:36.677Z,1.50
2022-07-29T19:24:11.077Z,1.20
2022-07-29T19:26:47.135Z,1.40
2022-07-29T19:29:15.743Z,1.70
2022-07-29T19:31:44.083Z,1.60
2022-07-29T19:34:12.623Z,1.60
2022-07-29T19:36:41.826Z,1.80
2022-07-29T19:39:10.516Z,1.70
2022-07-29T19:41:38.490Z,3.00
2022-07-29T19:44:06.233Z,4.70
2022-07-29T19:46:34.002Z,4.30
2022-07-29T19:49:01.973Z,3.00
2022-07-29T19:51:29.927Z,3.60
2022-07-29T19:53:58.130Z,3.10
2022-07-29T19:56:27.447Z,2.90
2022-07-29T19:58:57.057Z,2.20
2022-07-29T20:01:25.014Z,1.90
2022-07-29T20:03:53.876Z,2.20
2022-07-29T20:06:23.221Z,2.30
2022-07-29T20:08:55.364Z,1.80
2022-07-29T20:11:26.766Z,1.70
2022-07-29T20:13:54.647Z,1.90
2022-07-29T20:16:22.800Z,1.90
2022-07-29T20:18:53.241Z,1.70
2022-07-29T20:21:21.084Z,1.70
2022-07-29T20:23:49.095Z,1.50
2022-07-29T20:26:17.475Z,1.60
2022-07-29T20:28:49.288Z,2.00
2022-07-29T20:31:18.808Z,1.60
2022-07-29T20:33:47.362Z,1.90
2022-07-29T20:36:15.410Z,1.50
2022-07-29T20:38:43.715Z,1.80
2022-07-29T20:41:11.690Z,1.40
2022-07-29T20:43:40.085Z,1.60
2022-07-29T20:46:08.031Z,1.50
2022-07-29T20:48:35.918Z,1.50
2022-07-29T20:51:03.926Z,1.50
2022-07-29T20:53:33.953Z,1.90
2022-07-29T20:56:01.853Z,1.60
2022-07-29T20:58:29.648Z,1.90
2022-07-29T21:00:57.627Z,1.80
2022-07-29T21:03:25.524Z,2.10
2022-07-29T21:05:55.072Z,1.80
2022-07-29T21:08:23.009Z,1.70
2022-07-29T21:10:50.851Z,1.60
2022-07-29T21:13:20.616Z,1.60
2022-07-29T21:15:50.309Z,1.30
2022-07-29T21:18:30.753Z,1.60
2022-07-29T21:21:01.354Z,1.60
2022-07-29T21:23:30.200Z,1.50
2022-07-29T21:25:58.316Z,1.60
2022-07-29T21:28:26.634Z,1.70
2022-07-29T21:30:55.892Z,1.70
2022-07-29T21:33:24.831Z,1.40
2022-07-29T21:36:20.322Z,1.50
2022-07-29T21:38:40.497Z,1.60
2022-07-29T21:41:08.524Z,1.50
2022-07-29T21:43:36.316Z,1.20
2022-07-29T21:46:04.922Z,1.50
2022-07-29T21:48:33.097Z,1.30
2022-07-29T21:51:00.959Z,1.50
2022-07-29T21:53:28.841Z,1.10
2022-07-29T21:55:58.632Z,1.50
2022-07-29T21:58:27.479Z,1.40
2022-07-29T22:00:55.280Z,1.20
2022-07-29T22:03:23.115Z,1.50
2022-07-29T22:05:50.924Z,1.30
2022-07-29T22:08:21.048Z,1.40
2022-07-29T22:10:48.800Z,1.40
2022-07-29T22:13:16.742Z,1.30
2022-07-29T22:15:47.162Z,1.10
2022-07-29T22:18:20.996Z,1.40
2022-07-29T22:20:50.026Z,1.20
2022-07-29T22:23:17.907Z,1.10
2022-07-29T22:25:45.894Z,1.40
2022-07-29T22:28:14.997Z,1.20
2022-07-29T22:30:42.900Z,1.30
2022-07-29T22:33:17.967Z,1.30
2022-07-29T22:35:48.437Z,1.30
2022-07-29T22:38:19.524Z,1.40
2022-07-29T22:40:50.663Z,1.20
2022-07-29T22:43:18.772Z,1.20
2022-07-29T22:45:46.878Z,1.30
2022-07-29T22:48:14.826Z,1.40
2022-07-29T22:50:42.612Z,1.60
2022-07-29T22:53:10.476Z,1.50
2022-07-29T22:55:38.565Z,1.50
2022-07-29T22:58:06.439Z,1.40
2022-07-29T23:00:34.500Z,1.20
2022-07-29T23:03:02.388Z,1.10
2022-07-29T23:05:30.547Z,1.20
2022-07-29T23:07:58.381Z,1.20
2022-07-29T23:10:26.745Z,1.30
2022-07-29T23:12:54.636Z,1.50
2022-07-29T23:15:23.085Z,1.30
2022-07-29T23:17:51.654Z,1.40
2022-07-29T23:20:19.535Z,1.20
2022-07-29T23:22:47.360Z,1.30
2022-07-29T23:25:15.097Z,1.40
2022-07-29T23:27:43.063Z,1.30
2022-07-29T23:30:11.842Z,1.10
2022-07-29T23:32:41.022Z,1.50
2022-07-29T23:35:09.557Z,1.40
2022-07-29T23:37:37.391Z,1.30
2022-07-29T23:40:08.670Z,1.10
2022-07-29T23:42:38.885Z,1.40
2022-07-29T23:45:07.465Z,1.30
2022-07-29T23:47:35.411Z,1.40
2022-07-29T23:50:04.324Z,1.00
2022-07-29T23:52:32.074Z,1.40
2022-07-29T23:55:38.181Z,1.40
2022-07-29T23:57:49.921Z,1.40
